createdAt,value
2023-03-15T00:00:18.492Z,2.67
2023-03-15T00:02:57.968Z,3.10
2023-03-15T00:05:27.153Z,3.31
2023-03-15T00:07:57.319Z,3.00
2023-03-15T00:10:34.134Z,3.23
2023-03-15T00:13:01.646Z,3.22
2023-03-15T00:18:14.573Z,3.14
2023-03-15T00:20:43.820Z,3.00
2023-03-15T00:23:13.926Z,2.84
2023-03-15T00:25:48.560Z,3.04
2023-03-15T00:28:19.285Z,2.96
2023-03-15T00:31:10.716Z,2.77
2023-03-15T00:33:49.928Z,2.87
2023-03-15T00:39:02.530Z,2.87
2023-03-15T00:41:38.308Z,2.87
2023-03-15T00:44:05.186Z,2.83
2023-03-15T00:46:34.499Z,2.51
2023-03-15T00:49:07.314Z,2.73
2023-03-15T00:54:25.668Z,2.50
2023-03-15T00:56:56.414Z,2.13
2023-03-15T00:59:26.082Z,2.48
2023-03-15T01:01:55.448Z,2.52
2023-03-15T01:04:51.850Z,1.85
2023-03-15T01:07:23.290Z,2.46
2023-03-15T01:09:50.434Z,2.39
2023-03-15T01:12:17.844Z,2.31
2023-03-15T01:14:51.588Z,2.32
2023-03-15T01:17:22.784Z,2.28
2023-03-15T01:19:54.136Z,2.05
2023-03-15T01:22:27.665Z,2.38
2023-03-15T01:24:58.153Z,2.40
2023-03-15T01:27:31.754Z,2.41
2023-03-15T01:30:00.045Z,2.44
2023-03-15T01:33:07.464Z,2.42
2023-03-15T01:38:37.563Z,2.13
2023-03-15T01:41:31.794Z,2.07
2023-03-15T01:44:12.917Z,2.30
2023-03-15T01:46:43.728Z,2.19
2023-03-15T01:49:29.171Z,2.20
2023-03-15T01:52:14.549Z,2.16
2023-03-15T01:55:03.649Z,2.05
2023-03-15T01:57:43.473Z,2.17
2023-03-15T02:00:25.179Z,1.49
2023-03-15T02:03:07.229Z,1.42
2023-03-15T02:05:49.340Z,2.09
2023-03-15T02:08:27.067Z,2.11
2023-03-15T02:11:01.612Z,2.10
2023-03-15T02:13:44.472Z,2.00
2023-03-15T02:19:40.464Z,1.53
2023-03-15T02:22:30.514Z,2.19
2023-03-15T02:25:14.336Z,2.02
2023-03-15T02:27:42.538Z,2.06
2023-03-15T02:30:32.507Z,2.28
2023-03-15T02:33:02.243Z,2.08
2023-03-15T02:35:32.749Z,1.66
2023-03-15T02:38:00.672Z,2.04
2023-03-15T02:40:29.809Z,2.20
2023-03-15T02:43:05.469Z,1.94
2023-03-15T02:45:45.212Z,2.27
2023-03-15T02:48:20.755Z,1.53
2023-03-15T02:53:45.620Z,1.62
2023-03-15T02:56:14.440Z,1.69
2023-03-15T02:59:01.148Z,1.48
2023-03-15T03:01:30.357Z,1.71
2023-03-15T03:04:07.538Z,2.02
2023-03-15T03:09:20.175Z,2.20
2023-03-15T03:11:51.175Z,1.89
2023-03-15T03:14:21.666Z,2.00
2023-03-15T03:16:48.602Z,1.63
2023-03-15T03:19:15.483Z,2.20
2023-03-15T03:24:29.775Z,2.35
2023-03-15T03:27:03.878Z,2.01
2023-03-15T03:29:34.614Z,2.02
2023-03-15T03:32:04.377Z,2.22
2023-03-15T03:34:43.683Z,1.57
2023-03-15T03:37:20.324Z,1.79
2023-03-15T03:39:55.412Z,1.99
2023-03-15T03:42:30.470Z,1.57
2023-03-15T03:45:00.265Z,1.81
2023-03-15T03:50:33.614Z,1.67
2023-03-15T03:53:06.487Z,1.58
2023-03-15T03:55:41.661Z,1.88
2023-03-15T03:58:17.831Z,1.48
2023-03-15T04:00:47.534Z,2.10
2023-03-15T04:03:17.720Z,2.12
2023-03-15T04:05:47.122Z,2.13
2023-03-15T04:08:13.819Z,2.07
2023-03-15T04:10:41.351Z,2.14
2023-03-15T04:13:10.557Z,1.74
2023-03-15T04:18:27.583Z,1.98
2023-03-15T04:21:00.156Z,1.70
2023-03-15T04:26:11.972Z,2.00
2023-03-15T04:28:46.787Z,2.13
2023-03-15T04:31:15.284Z,1.95
2023-03-15T04:33:44.813Z,1.98
2023-03-15T04:36:23.789Z,1.74
2023-03-15T04:38:55.477Z,1.46
2023-03-15T04:41:25.507Z,2.06
2023-03-15T04:44:12.084Z,2.13
2023-03-15T04:46:48.721Z,2.16
2023-03-15T04:52:09.911Z,1.86
2023-03-15T04:54:37.882Z,2.26
2023-03-15T04:57:06.127Z,1.62
2023-03-15T04:59:40.560Z,1.95
2023-03-15T05:04:58.258Z,2.10
2023-03-15T05:07:46.777Z,1.84
2023-03-15T05:10:18.935Z,1.69
2023-03-15T05:13:20.152Z,2.04
2023-03-15T05:16:22.740Z,2.15
2023-03-15T05:18:50.189Z,1.55
2023-03-15T05:21:17.797Z,2.13
2023-03-15T05:23:47.790Z,2.17
2023-03-15T05:26:22.903Z,1.89
2023-03-15T05:28:53.657Z,2.24
2023-03-15T05:31:24.168Z,1.83
2023-03-15T05:33:55.257Z,2.05
2023-03-15T05:36:22.952Z,2.09
2023-03-15T05:38:53.110Z,2.13
2023-03-15T05:41:21.358Z,1.94
2023-03-15T05:43:48.626Z,1.82
2023-03-15T05:46:15.877Z,1.74
2023-03-15T05:48:43.214Z,1.71
2023-03-15T05:51:14.992Z,1.68
2023-03-15T05:56:32.824Z,1.63
2023-03-15T05:59:10.967Z,1.55
2023-03-15T06:04:31.736Z,1.82
2023-03-15T06:07:06.751Z,1.40
2023-03-15T06:15:24.445Z,1.52
2023-03-15T06:32:13.684Z,1.37
2023-03-15T06:44:04.819Z,1.20
2023-03-15T07:08:10.682Z,1.65
2023-03-15T08:00:38.741Z,2.30
2023-03-15T08:13:54.402Z,2.19
2023-03-15T08:26:28.197Z,2.56
2023-03-15T08:32:22.498Z,2.85
2023-03-15T08:38:27.061Z,2.99
2023-03-15T09:04:57.430Z,3.13
2023-03-15T09:07:37.129Z,3.26
2023-03-15T09:12:57.279Z,3.39
2023-03-15T09:15:27.481Z,3.58
2023-03-15T09:23:46.980Z,3.45
2023-03-15T09:26:13.925Z,3.75
2023-03-15T09:28:46.876Z,3.77
2023-03-15T09:31:17.483Z,3.70
2023-03-15T09:36:47.194Z,4.37
2023-03-15T09:39:18.467Z,5.40
2023-03-15T09:42:24.446Z,5.84
2023-03-15T09:45:17.777Z,6.05
2023-03-15T09:48:12.709Z,5.85
2023-03-15T09:51:40.458Z,5.44
2023-03-15T09:54:15.250Z,4.66
2023-03-15T10:00:18.276Z,4.05
2023-03-15T10:06:17.638Z,4.17
2023-03-15T10:19:12.897Z,4.23
2023-03-15T10:25:14.945Z,4.15
2023-03-15T10:30:38.324Z,4.18
2023-03-15T10:36:43.315Z,4.00
2023-03-15T10:48:37.226Z,5.17
2023-03-15T10:54:34.548Z,5.54
2023-03-15T10:57:28.340Z,5.18
2023-03-15T11:00:08.725Z,5.17
2023-03-15T11:02:40.864Z,5.10
2023-03-15T11:05:12.420Z,5.25
2023-03-15T11:07:57.555Z,5.12
2023-03-15T11:10:38.959Z,4.75
2023-03-15T11:13:24.873Z,4.64
2023-03-15T11:24:10.493Z,4.92
2023-03-15T11:26:48.448Z,4.98
2023-03-15T11:29:23.280Z,5.28
2023-03-15T11:31:58.123Z,5.18
2023-03-15T11:35:04.378Z,5.23
2023-03-15T11:38:06.238Z,5.15
2023-03-15T11:50:32.669Z,5.27
2023-03-15T11:53:07.475Z,5.32
2023-03-15T11:55:38.001Z,5.50
2023-03-15T11:58:29.426Z,5.61
2023-03-15T12:01:03.685Z,5.61
2023-03-15T12:04:15.891Z,5.61
2023-03-15T12:06:44.261Z,5.32
2023-03-15T12:09:47.435Z,5.41
2023-03-15T12:12:29.358Z,5.37
2023-03-15T12:15:28.013Z,5.36
2023-03-15T12:20:45.968Z,5.37
2023-03-15T12:23:31.951Z,5.38
2023-03-15T12:26:07.442Z,5.53
2023-03-15T12:29:07.933Z,5.48
2023-03-15T12:32:23.670Z,5.58
2023-03-15T12:35:09.453Z,5.62
2023-03-15T12:37:43.752Z,5.96
2023-03-15T12:40:26.880Z,6.35
2023-03-15T12:43:04.927Z,6.48
2023-03-15T12:48:41.113Z,6.23
2023-03-15T12:51:16.822Z,6.06
2023-03-15T12:54:12.448Z,5.83
2023-03-15T12:56:50.897Z,5.82
2023-03-15T12:59:27.316Z,5.72
2023-03-15T13:02:03.952Z,5.60
2023-03-15T13:07:51.944Z,5.44
2023-03-15T13:13:21.727Z,5.66
2023-03-15T13:16:31.269Z,5.80
2023-03-15T13:19:21.790Z,6.26
2023-03-15T13:22:34.808Z,6.81
2023-03-15T13:25:25.535Z,6.84
2023-03-15T13:27:56.621Z,6.73
2023-03-15T13:30:38.459Z,6.53
2023-03-15T13:33:31.849Z,6.38
2023-03-15T13:36:31.589Z,6.31
2023-03-15T13:39:01.818Z,6.22
2023-03-15T13:41:35.936Z,6.56
2023-03-15T13:44:31.159Z,6.99
2023-03-15T13:47:05.526Z,7.32
2023-03-15T13:55:08.791Z,7.65
2023-03-15T13:57:38.813Z,7.11
2023-03-15T14:00:20.227Z,7.28
2023-03-15T14:03:02.648Z,7.49
2023-03-15T14:08:52.724Z,7.68
2023-03-15T14:14:26.805Z,7.48
2023-03-15T14:17:05.771Z,7.47
2023-03-15T14:22:27.624Z,7.08
2023-03-15T14:24:58.251Z,6.98
2023-03-15T14:27:32.479Z,6.92
2023-03-15T14:30:45.834Z,7.02
2023-03-15T14:33:42.782Z,6.95
2023-03-15T14:36:37.005Z,7.09
2023-03-15T14:39:07.907Z,7.40
2023-03-15T14:41:44.126Z,7.29
2023-03-15T14:44:20.900Z,7.33
2023-03-15T14:49:59.948Z,7.34
2023-03-15T14:52:53.849Z,7.32
2023-03-15T14:58:47.724Z,7.37
2023-03-15T15:07:55.112Z,8.63
2023-03-15T15:10:32.927Z,8.71
2023-03-15T15:13:07.305Z,8.25
2023-03-15T15:18:51.258Z,7.19
2023-03-15T15:21:51.445Z,7.47
2023-03-15T15:27:17.869Z,7.02
2023-03-15T15:33:01.923Z,7.23
2023-03-15T16:50:10.432Z,6.05
2023-03-15T17:43:14.240Z,5.21
2023-03-15T17:46:03.162Z,5.01
2023-03-15T17:48:34.620Z,4.98
2023-03-15T18:00:06.154Z,4.94
2023-03-15T18:02:40.719Z,4.72
2023-03-15T18:08:34.821Z,4.77
2023-03-15T18:20:41.681Z,4.62
2023-03-15T18:25:55.977Z,4.50
2023-03-15T18:31:09.581Z,4.12
2023-03-15T18:33:40.091Z,4.05
2023-03-15T18:36:16.979Z,4.34
2023-03-15T18:44:40.412Z,4.34
2023-03-15T18:47:12.848Z,3.71
2023-03-15T18:52:41.886Z,4.17
2023-03-15T18:55:20.731Z,3.69
2023-03-15T18:57:54.181Z,4.22
2023-03-15T19:00:40.311Z,4.08
2023-03-15T19:03:32.731Z,3.91
2023-03-15T19:06:12.112Z,3.95
2023-03-15T19:14:55.010Z,3.87
2023-03-15T19:17:27.512Z,3.82
2023-03-15T19:20:00.047Z,3.81
2023-03-15T19:22:30.614Z,3.71
2023-03-15T19:25:00.477Z,3.48
2023-03-15T19:27:37.678Z,3.65
2023-03-15T19:35:58.576Z,3.67
2023-03-15T19:47:32.640Z,3.54
2023-03-15T19:50:16.207Z,3.48
2023-03-15T19:58:18.391Z,2.97
2023-03-15T20:00:46.174Z,3.05
2023-03-15T20:11:59.476Z,3.21
2023-03-15T20:39:49.248Z,2.69
2023-03-15T20:42:21.945Z,2.73
2023-03-15T20:50:35.320Z,2.28
2023-03-15T21:16:08.006Z,2.19
2023-03-15T22:08:44.363Z,1.84
2023-03-15T22:10:20.748Z,1.51
2023-03-15T22:13:13.300Z,1.72
2023-03-15T22:15:51.425Z,1.46
2023-03-15T22:18:37.507Z,1.05
2023-03-15T22:21:08.799Z,1.42
2023-03-15T22:23:43.040Z,1.53
2023-03-15T22:26:18.842Z,1.59
2023-03-15T22:28:56.317Z,1.57
2023-03-15T22:31:32.784Z,1.83
2023-03-15T22:37:12.877Z,1.72
2023-03-15T22:42:37.270Z,1.53
2023-03-15T22:53:40.005Z,1.47
2023-03-15T22:56:08.791Z,1.42
2023-03-15T22:58:36.324Z,1.37
2023-03-15T23:06:49.210Z,0.91
2023-03-15T23:15:11.301Z,0.97
2023-03-15T23:17:47.178Z,0.97
2023-03-15T23:20:20.153Z,1.08
2023-03-15T23:22:48.225Z,1.12
2023-03-15T23:25:24.220Z,0.87
2023-03-15T23:27:59.923Z,1.02
2023-03-15T23:30:34.459Z,0.96
2023-03-15T23:33:13.954Z,0.80
2023-03-15T23:35:45.547Z,0.86
2023-03-15T23:38:14.472Z,0.34
2023-03-15T23:40:46.566Z,0.90
2023-03-15T23:43:18.947Z,0.64
2023-03-15T23:45:49.992Z,0.76
2023-03-15T23:48:39.264Z,0.60
2023-03-15T23:51:16.171Z,0.28
2023-03-15T23:53:45.698Z,0.41
2023-03-15T23:56:23.313Z,0.48
